sensor_id;sensor_type;location;lat;lon;timestamp;temperature;humidity
15977;DHT22;8091;51.914;12.786;2022-08-20T00:00:31;20.90;99.90
15977;DHT22;8091;51.914;12.786;2022-08-20T00:03:01;21.00;99.90
15977;DHT22;8091;51.914;12.786;2022-08-20T00:05:38;20.90;99.90
15977;DHT22;8091;51.914;12.786;2022-08-20T00:08:08;20.90;99.90
15977;DHT22;8091;51.914;12.786;2022-08-20T00:10:37;20.90;99.90
15977;DHT22;8091;51.914;12.786;2022-08-20T00:13:04;20.80;99.90
15977;DHT22;8091;51.914;12.786;2022-08-20T00:15:33;20.80;99.90
15977;DHT22;8091;51.914;12.786;2022-08-20T00:18:00;20.90;99.90
15977;DHT22;8091;51.914;12.786;2022-08-20T00:20:29;21.00;99.90
15977;DHT22;8091;51.914;12.786;2022-08-20T00:22:57;21.00;99.90
15977;DHT22;8091;51.914;12.786;2022-08-20T00:25:24;21.00;99.90
15977;DHT22;8091;51.914;12.786;2022-08-20T00:27:49;20.90;99.90
15977;DHT22;8091;51.914;12.786;2022-08-20T00:30:15;20.90;99.90
15977;DHT22;8091;51.914;12.786;2022-08-20T00:32:57;20.80;99.90
15977;DHT22;8091;51.914;12.786;2022-08-20T00:35:25;20.80;99.90
15977;DHT22;8091;51.914;12.786;2022-08-20T00:37:51;20.80;99.90
15977;DHT22;8091;51.914;12.786;2022-08-20T00:40:22;20.80;99.90
15977;DHT22;8091;51.914;12.786;2022-08-20T00:42:54;20.70;99.90
15977;DHT22;8091;51.914;12.786;2022-08-20T00:45:23;20.70;99.90
15977;DHT22;8091;51.914;12.786;2022-08-20T00:47:48;20.70;99.90
15977;DHT22;8091;51.914;12.786;2022-08-20T00:50:17;20.80;99.90
15977;DHT22;8091;51.914;12.786;2022-08-20T00:52:48;20.90;99.90
15977;DHT22;8091;51.914;12.786;2022-08-20T00:55:16;20.80;99.90
15977;DHT22;8091;51.914;12.786;2022-08-20T00:57:46;20.90;99.90
15977;DHT22;8091;51.914;12.786;2022-08-20T01:00:17;20.90;99.90
15977;DHT22;8091;51.914;12.786;2022-08-20T01:02:43;20.90;99.90
15977;DHT22;8091;51.914;12.786;2022-08-20T01:05:10;20.90;99.90
15977;DHT22;8091;51.914;12.786;2022-08-20T01:07:36;21.00;99.90
15977;DHT22;8091;51.914;12.786;2022-08-20T01:10:10;20.90;99.90
15977;DHT22;8091;51.914;12.786;2022-08-20T01:12:38;20.90;99.90
15977;DHT22;8091;51.914;12.786;2022-08-20T01:15:09;21.00;99.90
15977;DHT22;8091;51.914;12.786;2022-08-20T01:17:39;21.00;99.90
15977;DHT22;8091;51.914;12.786;2022-08-20T01:20:16;21.00;99.90
15977;DHT22;8091;51.914;12.786;2022-08-20T01:25:54;21.00;99.90
15977;DHT22;8091;51.914;12.786;2022-08-20T01:28:29;21.20;99.90
15977;DHT22;8091;51.914;12.786;2022-08-20T01:30:55;21.30;99.90
15977;DHT22;8091;51.914;12.786;2022-08-20T01:33:22;21.20;99.90
15977;DHT22;8091;51.914;12.786;2022-08-20T01:35:48;21.10;99.90
15977;DHT22;8091;51.914;12.786;2022-08-20T01:38:16;21.40;99.90
15977;DHT22;8091;51.914;12.786;2022-08-20T01:43:22;21.10;99.90
15977;DHT22;8091;51.914;12.786;2022-08-20T01:45:49;21.20;99.90
15977;DHT22;8091;51.914;12.786;2022-08-20T01:48:15;21.10;99.90
15977;DHT22;8091;51.914;12.786;2022-08-20T01:50:45;21.10;99.90
15977;DHT22;8091;51.914;12.786;2022-08-20T01:53:34;21.10;99.90
15977;DHT22;8091;51.914;12.786;2022-08-20T01:56:01;21.10;99.90
15977;DHT22;8091;51.914;12.786;2022-08-20T01:58:28;21.10;99.90
15977;DHT22;8091;51.914;12.786;2022-08-20T02:00:55;21.10;99.90
15977;DHT22;8091;51.914;12.786;2022-08-20T02:03:21;21.10;99.90
15977;DHT22;8091;51.914;12.786;2022-08-20T02:05:47;21.00;99.90
15977;DHT22;8091;51.914;12.786;2022-08-20T02:08:13;21.20;99.90
15977;DHT22;8091;51.914;12.786;2022-08-20T02:10:38;21.20;99.90
15977;DHT22;8091;51.914;12.786;2022-08-20T02:13:05;21.20;99.90
15977;DHT22;8091;51.914;12.786;2022-08-20T02:15:35;21.10;99.90
15977;DHT22;8091;51.914;12.786;2022-08-20T02:18:09;21.10;99.90
15977;DHT22;8091;51.914;12.786;2022-08-20T02:20:36;21.00;99.90
15977;DHT22;8091;51.914;12.786;2022-08-20T02:23:03;21.00;99.90
15977;DHT22;8091;51.914;12.786;2022-08-20T02:25:31;20.90;99.90
15977;DHT22;8091;51.914;12.786;2022-08-20T02:28:01;21.00;99.90
15977;DHT22;8091;51.914;12.786;2022-08-20T02:30:34;21.10;99.90
15977;DHT22;8091;51.914;12.786;2022-08-20T02:33:02;21.10;99.90
15977;DHT22;8091;51.914;12.786;2022-08-20T02:35:29;21.10;99.90
15977;DHT22;8091;51.914;12.786;2022-08-20T02:37:54;21.10;99.90
15977;DHT22;8091;51.914;12.786;2022-08-20T02:40:23;21.00;99.90
15977;DHT22;8091;51.914;12.786;2022-08-20T02:42:50;21.10;99.90
15977;DHT22;8091;51.914;12.786;2022-08-20T02:45:17;21.10;99.90
15977;DHT22;8091;51.914;12.786;2022-08-20T02:47:43;21.00;99.90
15977;DHT22;8091;51.914;12.786;2022-08-20T02:50:16;21.10;99.90
15977;DHT22;8091;51.914;12.786;2022-08-20T02:52:42;21.00;99.90
15977;DHT22;8091;51.914;12.786;2022-08-20T02:55:09;21.10;99.90
15977;DHT22;8091;51.914;12.786;2022-08-20T02:57:35;21.10;99.90
15977;DHT22;8091;51.914;12.786;2022-08-20T03:00:14;20.90;99.90
15977;DHT22;8091;51.914;12.786;2022-08-20T03:02:40;20.90;99.90
15977;DHT22;8091;51.914;12.786;2022-08-20T03:05:06;21.00;99.90
15977;DHT22;8091;51.914;12.786;2022-08-20T03:07:46;21.00;99.90
15977;DHT22;8091;51.914;12.786;2022-08-20T03:10:13;21.00;99.90
15977;DHT22;8091;51.914;12.786;2022-08-20T03:12:40;20.90;99.90
15977;DHT22;8091;51.914;12.786;2022-08-20T03:15:08;20.90;99.90
15977;DHT22;8091;51.914;12.786;2022-08-20T03:17:34;20.80;99.90
15977;DHT22;8091;51.914;12.786;2022-08-20T03:20:00;20.80;99.90
15977;DHT22;8091;51.914;12.786;2022-08-20T03:22:26;20.80;99.90
15977;DHT22;8091;51.914;12.786;2022-08-20T03:24:51;20.80;99.90
15977;DHT22;8091;51.914;12.786;2022-08-20T03:27:17;20.80;99.90
15977;DHT22;8091;51.914;12.786;2022-08-20T03:29:42;20.80;99.90
15977;DHT22;8091;51.914;12.786;2022-08-20T03:32:08;20.80;99.90
15977;DHT22;8091;51.914;12.786;2022-08-20T03:34:34;20.70;99.90
15977;DHT22;8091;51.914;12.786;2022-08-20T03:36:59;20.60;99.90
15977;DHT22;8091;51.914;12.786;2022-08-20T03:39:25;20.70;99.90
15977;DHT22;8091;51.914;12.786;2022-08-20T03:41:50;20.70;99.90
15977;DHT22;8091;51.914;12.786;2022-08-20T03:44:16;20.60;99.90
15977;DHT22;8091;51.914;12.786;2022-08-20T03:46:42;20.60;99.90
15977;DHT22;8091;51.914;12.786;2022-08-20T03:49:08;20.70;99.90
15977;DHT22;8091;51.914;12.786;2022-08-20T03:51:34;20.60;99.90
15977;DHT22;8091;51.914;12.786;2022-08-20T03:54:00;20.50;99.90
15977;DHT22;8091;51.914;12.786;2022-08-20T03:56:26;20.50;99.90
15977;DHT22;8091;51.914;12.786;2022-08-20T03:58:51;20.40;99.90
15977;DHT22;8091;51.914;12.786;2022-08-20T04:01:17;20.50;99.90
15977;DHT22;8091;51.914;12.786;2022-08-20T04:03:43;20.50;99.90
15977;DHT22;8091;51.914;12.786;2022-08-20T04:06:09;20.50;99.90
15977;DHT22;8091;51.914;12.786;2022-08-20T04:08:35;20.40;99.90
15977;DHT22;8091;51.914;12.786;2022-08-20T04:11:02;20.40;99.90
15977;DHT22;8091;51.914;12.786;2022-08-20T04:13:28;20.50;99.90
15977;DHT22;8091;51.914;12.786;2022-08-20T04:15:54;20.50;99.90
15977;DHT22;8091;51.914;12.786;2022-08-20T04:18:22;20.40;99.90
15977;DHT22;8091;51.914;12.786;2022-08-20T04:20:49;20.50;99.90
15977;DHT22;8091;51.914;12.786;2022-08-20T04:23:15;20.40;99.90
15977;DHT22;8091;51.914;12.786;2022-08-20T04:25:42;20.40;99.90
15977;DHT22;8091;51.914;12.786;2022-08-20T04:28:13;20.40;99.90
15977;DHT22;8091;51.914;12.786;2022-08-20T04:30:40;20.30;99.90
15977;DHT22;8091;51.914;12.786;2022-08-20T04:33:07;20.30;99.90
15977;DHT22;8091;51.914;12.786;2022-08-20T04:35:33;20.30;99.90
15977;DHT22;8091;51.914;12.786;2022-08-20T04:38:04;20.30;99.90
15977;DHT22;8091;51.914;12.786;2022-08-20T04:40:31;20.30;99.90
15977;DHT22;8091;51.914;12.786;2022-08-20T04:43:16;20.30;99.90
15977;DHT22;8091;51.914;12.786;2022-08-20T04:45:44;20.20;99.90
15977;DHT22;8091;51.914;12.786;2022-08-20T04:48:12;20.20;99.90
15977;DHT22;8091;51.914;12.786;2022-08-20T04:50:39;20.20;99.90
15977;DHT22;8091;51.914;12.786;2022-08-20T04:53:08;20.20;99.90
15977;DHT22;8091;51.914;12.786;2022-08-20T04:55:35;20.20;99.90
15977;DHT22;8091;51.914;12.786;2022-08-20T04:58:29;20.20;99.90
15977;DHT22;8091;51.914;12.786;2022-08-20T05:00:57;20.20;99.90
15977;DHT22;8091;51.914;12.786;2022-08-20T05:03:24;20.20;99.90
15977;DHT22;8091;51.914;12.786;2022-08-20T05:05:51;20.20;99.90
15977;DHT22;8091;51.914;12.786;2022-08-20T05:08:18;20.20;99.90
15977;DHT22;8091;51.914;12.786;2022-08-20T05:10:45;20.30;99.90
15977;DHT22;8091;51.914;12.786;2022-08-20T05:13:11;20.20;99.90
15977;DHT22;8091;51.914;12.786;2022-08-20T05:15:38;20.20;99.90
15977;DHT22;8091;51.914;12.786;2022-08-20T05:18:05;20.20;99.90
15977;DHT22;8091;51.914;12.786;2022-08-20T05:20:35;20.20;99.90
15977;DHT22;8091;51.914;12.786;2022-08-20T05:23:09;20.20;99.90
15977;DHT22;8091;51.914;12.786;2022-08-20T05:25:36;20.20;99.90
15977;DHT22;8091;51.914;12.786;2022-08-20T05:28:11;20.20;99.90
15977;DHT22;8091;51.914;12.786;2022-08-20T05:30:39;20.20;99.90
15977;DHT22;8091;51.914;12.786;2022-08-20T05:33:07;20.20;99.90
15977;DHT22;8091;51.914;12.786;2022-08-20T05:35:34;20.20;99.90
15977;DHT22;8091;51.914;12.786;2022-08-20T05:38:06;20.30;99.90
15977;DHT22;8091;51.914;12.786;2022-08-20T05:40:34;20.40;99.90
15977;DHT22;8091;51.914;12.786;2022-08-20T05:43:00;20.40;99.90
15977;DHT22;8091;51.914;12.786;2022-08-20T05:45:29;20.40;99.90
15977;DHT22;8091;51.914;12.786;2022-08-20T05:47:54;20.40;99.90
15977;DHT22;8091;51.914;12.786;2022-08-20T05:50:20;20.40;99.90
15977;DHT22;8091;51.914;12.786;2022-08-20T05:52:46;20.40;99.90
15977;DHT22;8091;51.914;12.786;2022-08-20T05:55:12;20.40;99.90
15977;DHT22;8091;51.914;12.786;2022-08-20T05:57:38;20.50;99.90
15977;DHT22;8091;51.914;12.786;2022-08-20T06:00:08;20.50;99.90
15977;DHT22;8091;51.914;12.786;2022-08-20T06:02:34;20.50;99.90
15977;DHT22;8091;51.914;12.786;2022-08-20T06:05:18;20.60;99.90
15977;DHT22;8091;51.914;12.786;2022-08-20T06:07:45;20.60;99.90
15977;DHT22;8091;51.914;12.786;2022-08-20T06:10:11;20.70;99.90
15977;DHT22;8091;51.914;12.786;2022-08-20T06:12:37;20.60;99.90
15977;DHT22;8091;51.914;12.786;2022-08-20T06:15:06;20.60;99.90
15977;DHT22;8091;51.914;12.786;2022-08-20T06:17:32;20.60;99.90
15977;DHT22;8091;51.914;12.786;2022-08-20T06:20:05;20.70;99.90
15977;DHT22;8091;51.914;12.786;2022-08-20T06:22:32;20.60;99.90
15977;DHT22;8091;51.914;12.786;2022-08-20T06:24:57;20.60;99.90
15977;DHT22;8091;51.914;12.786;2022-08-20T06:27:23;20.70;99.90
15977;DHT22;8091;51.914;12.786;2022-08-20T06:29:49;20.70;99.90
15977;DHT22;8091;51.914;12.786;2022-08-20T06:32:14;20.80;99.90
15977;DHT22;8091;51.914;12.786;2022-08-20T06:34:40;20.80;99.90
15977;DHT22;8091;51.914;12.786;2022-08-20T06:37:14;20.80;99.90
15977;DHT22;8091;51.914;12.786;2022-08-20T06:39:41;20.80;99.90
15977;DHT22;8091;51.914;12.786;2022-08-20T06:42:06;20.80;99.90
15977;DHT22;8091;51.914;12.786;2022-08-20T06:44:32;20.80;99.90
15977;DHT22;8091;51.914;12.786;2022-08-20T06:47:02;21.00;99.90
15977;DHT22;8091;51.914;12.786;2022-08-20T06:49:29;21.00;99.90
15977;DHT22;8091;51.914;12.786;2022-08-20T06:51:55;21.00;99.90
15977;DHT22;8091;51.914;12.786;2022-08-20T06:54:21;21.10;99.90
15977;DHT22;8091;51.914;12.786;2022-08-20T06:56:47;21.10;99.90
15977;DHT22;8091;51.914;12.786;2022-08-20T06:59:13;21.10;99.90
15977;DHT22;8091;51.914;12.786;2022-08-20T07:01:38;21.10;99.90
15977;DHT22;8091;51.914;12.786;2022-08-20T07:04:04;21.10;99.90
15977;DHT22;8091;51.914;12.786;2022-08-20T07:06:33;21.10;99.90
15977;DHT22;8091;51.914;12.786;2022-08-20T07:08:59;21.10;99.90
15977;DHT22;8091;51.914;12.786;2022-08-20T07:11:25;21.10;99.90
15977;DHT22;8091;51.914;12.786;2022-08-20T07:13:51;21.10;99.90
15977;DHT22;8091;51.914;12.786;2022-08-20T07:16:17;21.20;99.90
15977;DHT22;8091;51.914;12.786;2022-08-20T07:18:43;21.30;99.90
15977;DHT22;8091;51.914;12.786;2022-08-20T07:21:09;21.30;99.90
15977;DHT22;8091;51.914;12.786;2022-08-20T07:23:36;21.40;99.90
15977;DHT22;8091;51.914;12.786;2022-08-20T07:26:02;21.50;99.90
15977;DHT22;8091;51.914;12.786;2022-08-20T07:28:28;21.60;99.90
15977;DHT22;8091;51.914;12.786;2022-08-20T07:30:55;21.60;99.90
15977;DHT22;8091;51.914;12.786;2022-08-20T07:33:40;21.70;99.90
15977;DHT22;8091;51.914;12.786;2022-08-20T07:36:06;21.90;99.90
15977;DHT22;8091;51.914;12.786;2022-08-20T07:38:33;22.00;99.90
15977;DHT22;8091;51.914;12.786;2022-08-20T07:41:01;22.00;99.90
15977;DHT22;8091;51.914;12.786;2022-08-20T07:43:28;22.00;99.90
15977;DHT22;8091;51.914;12.786;2022-08-20T07:45:55;22.10;99.90
15977;DHT22;8091;51.914;12.786;2022-08-20T07:48:23;22.10;99.90
15977;DHT22;8091;51.914;12.786;2022-08-20T07:50:58;22.00;99.90
15977;DHT22;8091;51.914;12.786;2022-08-20T07:53:25;22.10;99.90
15977;DHT22;8091;51.914;12.786;2022-08-20T07:55:50;22.20;99.90
15977;DHT22;8091;51.914;12.786;2022-08-20T07:58:18;22.30;99.90
15977;DHT22;8091;51.914;12.786;2022-08-20T08:00:45;22.40;99.90
15977;DHT22;8091;51.914;12.786;2022-08-20T08:03:11;22.50;99.90
15977;DHT22;8091;51.914;12.786;2022-08-20T08:05:40;22.50;99.90
15977;DHT22;8091;51.914;12.786;2022-08-20T08:08:08;22.60;99.90
15977;DHT22;8091;51.914;12.786;2022-08-20T08:10:35;22.60;99.90
15977;DHT22;8091;51.914;12.786;2022-08-20T08:13:05;22.70;99.90
15977;DHT22;8091;51.914;12.786;2022-08-20T08:15:33;23.00;99.90
15977;DHT22;8091;51.914;12.786;2022-08-20T08:18:06;22.90;99.90
15977;DHT22;8091;51.914;12.786;2022-08-20T08:20:35;23.10;99.90
15977;DHT22;8091;51.914;12.786;2022-08-20T08:23:03;23.00;99.90
15977;DHT22;8091;51.914;12.786;2022-08-20T08:25:29;22.90;99.90
15977;DHT22;8091;51.914;12.786;2022-08-20T08:27:56;23.00;99.90
15977;DHT22;8091;51.914;12.786;2022-08-20T08:30:24;23.10;99.90
15977;DHT22;8091;51.914;12.786;2022-08-20T08:32:50;23.10;99.90
15977;DHT22;8091;51.914;12.786;2022-08-20T08:35:37;23.30;99.90
15977;DHT22;8091;51.914;12.786;2022-08-20T08:38:03;23.50;99.90
15977;DHT22;8091;51.914;12.786;2022-08-20T08:40:30;23.50;99.90
15977;DHT22;8091;51.914;12.786;2022-08-20T08:42:59;23.60;99.90
15977;DHT22;8091;51.914;12.786;2022-08-20T08:45:40;23.70;99.90
15977;DHT22;8091;51.914;12.786;2022-08-20T08:48:11;23.70;99.90
15977;DHT22;8091;51.914;12.786;2022-08-20T08:50:39;23.60;99.90
15977;DHT22;8091;51.914;12.786;2022-08-20T08:53:07;23.60;99.90
15977;DHT22;8091;51.914;12.786;2022-08-20T08:55:35;23.50;99.90
15977;DHT22;8091;51.914;12.786;2022-08-20T08:58:02;23.50;99.90
15977;DHT22;8091;51.914;12.786;2022-08-20T09:00:28;23.60;99.90
15977;DHT22;8091;51.914;12.786;2022-08-20T09:03:04;23.70;99.90
15977;DHT22;8091;51.914;12.786;2022-08-20T09:05:45;23.80;99.90
15977;DHT22;8091;51.914;12.786;2022-08-20T09:08:14;23.80;99.90
15977;DHT22;8091;51.914;12.786;2022-08-20T09:10:43;23.80;99.90
15977;DHT22;8091;51.914;12.786;2022-08-20T09:13:09;23.80;99.90
15977;DHT22;8091;51.914;12.786;2022-08-20T09:15:35;23.80;99.90
15977;DHT22;8091;51.914;12.786;2022-08-20T09:18:00;23.90;99.90
15977;DHT22;8091;51.914;12.786;2022-08-20T09:20:26;23.90;99.90
15977;DHT22;8091;51.914;12.786;2022-08-20T09:22:52;24.00;99.90
15977;DHT22;8091;51.914;12.786;2022-08-20T09:25:18;24.20;99.90
15977;DHT22;8091;51.914;12.786;2022-08-20T09:27:44;24.20;99.90
15977;DHT22;8091;51.914;12.786;2022-08-20T09:30:10;24.20;99.90
15977;DHT22;8091;51.914;12.786;2022-08-20T09:32:36;24.20;99.90
15977;DHT22;8091;51.914;12.786;2022-08-20T09:35:02;24.20;99.90
15977;DHT22;8091;51.914;12.786;2022-08-20T09:37:30;24.20;99.90
15977;DHT22;8091;51.914;12.786;2022-08-20T09:39:56;24.10;99.90
15977;DHT22;8091;51.914;12.786;2022-08-20T09:42:27;24.20;99.90
15977;DHT22;8091;51.914;12.786;2022-08-20T09:44:53;23.90;99.90
15977;DHT22;8091;51.914;12.786;2022-08-20T09:47:19;23.90;99.90
15977;DHT22;8091;51.914;12.786;2022-08-20T09:49:45;23.90;99.90
15977;DHT22;8091;51.914;12.786;2022-08-20T09:52:30;23.90;99.90
15977;DHT22;8091;51.914;12.786;2022-08-20T09:55:02;24.00;99.90
15977;DHT22;8091;51.914;12.786;2022-08-20T09:57:28;24.00;99.90
15977;DHT22;8091;51.914;12.786;2022-08-20T09:59:58;24.10;99.90
15977;DHT22;8091;51.914;12.786;2022-08-20T10:02:25;24.10;99.90
15977;DHT22;8091;51.914;12.786;2022-08-20T10:04:51;24.20;99.90
15977;DHT22;8091;51.914;12.786;2022-08-20T10:07:17;24.20;99.90
15977;DHT22;8091;51.914;12.786;2022-08-20T10:09:42;24.30;99.90
15977;DHT22;8091;51.914;12.786;2022-08-20T10:12:08;24.20;99.90
15977;DHT22;8091;51.914;12.786;2022-08-20T10:14:34;24.20;99.90
15977;DHT22;8091;51.914;12.786;2022-08-20T10:17:01;24.30;99.90
15977;DHT22;8091;51.914;12.786;2022-08-20T10:19:28;24.20;99.90
15977;DHT22;8091;51.914;12.786;2022-08-20T10:21:54;24.10;99.90
15977;DHT22;8091;51.914;12.786;2022-08-20T10:24:20;23.90;99.90
15977;DHT22;8091;51.914;12.786;2022-08-20T10:26:47;23.90;99.90
15977;DHT22;8091;51.914;12.786;2022-08-20T10:29:13;23.90;99.90
15977;DHT22;8091;51.914;12.786;2022-08-20T10:31:39;23.80;99.90
15977;DHT22;8091;51.914;12.786;2022-08-20T10:34:05;23.80;99.90
15977;DHT22;8091;51.914;12.786;2022-08-20T10:36:31;23.70;99.90
15977;DHT22;8091;51.914;12.786;2022-08-20T10:38:56;23.90;99.90
15977;DHT22;8091;51.914;12.786;2022-08-20T10:41:22;23.90;99.90
15977;DHT22;8091;51.914;12.786;2022-08-20T10:43:48;24.00;99.90
15977;DHT22;8091;51.914;12.786;2022-08-20T10:46:13;24.10;99.90
15977;DHT22;8091;51.914;12.786;2022-08-20T10:48:39;24.00;99.90
15977;DHT22;8091;51.914;12.786;2022-08-20T10:51:05;24.00;99.90
15977;DHT22;8091;51.914;12.786;2022-08-20T10:53:30;23.90;99.90
15977;DHT22;8091;51.914;12.786;2022-08-20T10:55:56;23.90;99.90
15977;DHT22;8091;51.914;12.786;2022-08-20T10:58:23;23.80;99.90
15977;DHT22;8091;51.914;12.786;2022-08-20T11:00:50;23.70;99.90
15977;DHT22;8091;51.914;12.786;2022-08-20T11:03:16;23.70;99.90
15977;DHT22;8091;51.914;12.786;2022-08-20T11:05:42;23.60;99.90
15977;DHT22;8091;51.914;12.786;2022-08-20T11:08:08;23.50;99.90
15977;DHT22;8091;51.914;12.786;2022-08-20T11:10:34;23.40;99.90
15977;DHT22;8091;51.914;12.786;2022-08-20T11:13:03;23.50;99.90
15977;DHT22;8091;51.914;12.786;2022-08-20T11:15:29;23.60;99.90
15977;DHT22;8091;51.914;12.786;2022-08-20T11:17:54;23.60;99.90
15977;DHT22;8091;51.914;12.786;2022-08-20T11:20:22;23.70;99.90
15977;DHT22;8091;51.914;12.786;2022-08-20T11:22:49;23.80;99.90
15977;DHT22;8091;51.914;12.786;2022-08-20T11:25:15;23.90;99.90
15977;DHT22;8091;51.914;12.786;2022-08-20T11:27:43;24.00;99.90
15977;DHT22;8091;51.914;12.786;2022-08-20T11:30:13;24.10;99.90
15977;DHT22;8091;51.914;12.786;2022-08-20T11:32:40;24.20;99.90
15977;DHT22;8091;51.914;12.786;2022-08-20T11:35:06;24.30;99.90
15977;DHT22;8091;51.914;12.786;2022-08-20T11:37:33;24.40;99.90
15977;DHT22;8091;51.914;12.786;2022-08-20T11:39:58;24.40;99.90
15977;DHT22;8091;51.914;12.786;2022-08-20T11:42:24;24.70;99.90
15977;DHT22;8091;51.914;12.786;2022-08-20T11:44:50;24.70;99.90
15977;DHT22;8091;51.914;12.786;2022-08-20T11:47:26;24.90;99.90
15977;DHT22;8091;51.914;12.786;2022-08-20T11:50:00;25.00;99.90
15977;DHT22;8091;51.914;12.786;2022-08-20T11:52:26;25.00;99.90
15977;DHT22;8091;51.914;12.786;2022-08-20T11:54:52;25.00;99.90
15977;DHT22;8091;51.914;12.786;2022-08-20T11:57:23;24.90;99.90
15977;DHT22;8091;51.914;12.786;2022-08-20T11:59:50;24.90;99.90
15977;DHT22;8091;51.914;12.786;2022-08-20T12:02:16;24.90;99.90
15977;DHT22;8091;51.914;12.786;2022-08-20T12:04:42;24.80;99.90
15977;DHT22;8091;51.914;12.786;2022-08-20T12:07:09;24.80;99.90
15977;DHT22;8091;51.914;12.786;2022-08-20T12:09:35;25.00;99.90
15977;DHT22;8091;51.914;12.786;2022-08-20T12:12:01;25.20;99.90
15977;DHT22;8091;51.914;12.786;2022-08-20T12:14:26;25.20;99.90
15977;DHT22;8091;51.914;12.786;2022-08-20T12:16:52;25.20;99.90
15977;DHT22;8091;51.914;12.786;2022-08-20T12:19:17;25.10;99.90
15977;DHT22;8091;51.914;12.786;2022-08-20T12:21:43;25.20;99.90
15977;DHT22;8091;51.914;12.786;2022-08-20T12:24:09;25.00;99.90
15977;DHT22;8091;51.914;12.786;2022-08-20T12:26:34;24.90;99.90
15977;DHT22;8091;51.914;12.786;2022-08-20T12:29:00;24.70;99.90
15977;DHT22;8091;51.914;12.786;2022-08-20T12:31:25;24.70;99.90
15977;DHT22;8091;51.914;12.786;2022-08-20T12:33:51;24.50;99.90
15977;DHT22;8091;51.914;12.786;2022-08-20T12:36:16;24.40;99.90
15977;DHT22;8091;51.914;12.786;2022-08-20T12:38:42;24.40;99.90
15977;DHT22;8091;51.914;12.786;2022-08-20T12:41:08;24.40;99.90
15977;DHT22;8091;51.914;12.786;2022-08-20T12:43:33;24.20;99.90
15977;DHT22;8091;51.914;12.786;2022-08-20T12:45:59;24.10;99.90
15977;DHT22;8091;51.914;12.786;2022-08-20T12:48:24;24.10;99.90
15977;DHT22;8091;51.914;12.786;2022-08-20T12:50:50;24.10;99.90
15977;DHT22;8091;51.914;12.786;2022-08-20T12:53:17;24.00;99.90
15977;DHT22;8091;51.914;12.786;2022-08-20T12:55:43;23.90;99.90
15977;DHT22;8091;51.914;12.786;2022-08-20T12:58:09;23.90;99.90
15977;DHT22;8091;51.914;12.786;2022-08-20T13:00:37;23.90;99.90
15977;DHT22;8091;51.914;12.786;2022-08-20T13:03:05;23.60;99.90
15977;DHT22;8091;51.914;12.786;2022-08-20T13:05:31;23.50;99.90
15977;DHT22;8091;51.914;12.786;2022-08-20T13:07:57;23.50;99.90
15977;DHT22;8091;51.914;12.786;2022-08-20T13:10:29;23.40;99.90
15977;DHT22;8091;51.914;12.786;2022-08-20T13:12:55;23.40;99.90
15977;DHT22;8091;51.914;12.786;2022-08-20T13:15:22;23.40;99.90
15977;DHT22;8091;51.914;12.786;2022-08-20T13:17:56;23.50;99.90
15977;DHT22;8091;51.914;12.786;2022-08-20T13:20:23;23.50;99.90
15977;DHT22;8091;51.914;12.786;2022-08-20T13:22:55;23.60;99.90
15977;DHT22;8091;51.914;12.786;2022-08-20T13:25:22;23.60;99.90
15977;DHT22;8091;51.914;12.786;2022-08-20T13:27:48;23.70;99.90
15977;DHT22;8091;51.914;12.786;2022-08-20T13:30:17;24.00;99.90
15977;DHT22;8091;51.914;12.786;2022-08-20T13:32:44;23.90;99.90
15977;DHT22;8091;51.914;12.786;2022-08-20T13:35:11;24.10;99.90
15977;DHT22;8091;51.914;12.786;2022-08-20T13:37:38;23.90;99.90
15977;DHT22;8091;51.914;12.786;2022-08-20T13:40:05;24.00;99.90
15977;DHT22;8091;51.914;12.786;2022-08-20T13:42:33;24.00;99.90
15977;DHT22;8091;51.914;12.786;2022-08-20T13:44:59;23.90;99.90
15977;DHT22;8091;51.914;12.786;2022-08-20T13:47:29;24.20;99.90
15977;DHT22;8091;51.914;12.786;2022-08-20T13:49:59;24.40;99.90
15977;DHT22;8091;51.914;12.786;2022-08-20T13:52:26;24.60;99.90
15977;DHT22;8091;51.914;12.786;2022-08-20T13:54:52;24.50;99.90
15977;DHT22;8091;51.914;12.786;2022-08-20T13:57:19;24.40;99.90
15977;DHT22;8091;51.914;12.786;2022-08-20T13:59:47;24.40;99.90
15977;DHT22;8091;51.914;12.786;2022-08-20T14:02:13;24.40;99.90
15977;DHT22;8091;51.914;12.786;2022-08-20T14:04:39;24.50;99.90
15977;DHT22;8091;51.914;12.786;2022-08-20T14:07:10;24.40;99.90
15977;DHT22;8091;51.914;12.786;2022-08-20T14:09:41;24.40;99.90
15977;DHT22;8091;51.914;12.786;2022-08-20T14:12:08;24.50;99.90
15977;DHT22;8091;51.914;12.786;2022-08-20T14:14:34;24.50;99.90
15977;DHT22;8091;51.914;12.786;2022-08-20T14:17:12;24.50;99.90
15977;DHT22;8091;51.914;12.786;2022-08-20T14:19:38;24.60;99.90
15977;DHT22;8091;51.914;12.786;2022-08-20T14:22:03;24.50;99.90
15977;DHT22;8091;51.914;12.786;2022-08-20T14:24:29;24.70;99.90
15977;DHT22;8091;51.914;12.786;2022-08-20T14:26:55;24.50;99.90
15977;DHT22;8091;51.914;12.786;2022-08-20T14:29:21;24.50;99.90
15977;DHT22;8091;51.914;12.786;2022-08-20T14:31:48;24.60;99.90
15977;DHT22;8091;51.914;12.786;2022-08-20T14:34:14;24.70;99.90
15977;DHT22;8091;51.914;12.786;2022-08-20T14:36:39;24.80;99.90
15977;DHT22;8091;51.914;12.786;2022-08-20T14:39:05;24.80;99.90
15977;DHT22;8091;51.914;12.786;2022-08-20T14:41:30;25.00;99.90
15977;DHT22;8091;51.914;12.786;2022-08-20T14:43:56;25.10;99.90
15977;DHT22;8091;51.914;12.786;2022-08-20T14:46:21;25.30;99.90
15977;DHT22;8091;51.914;12.786;2022-08-20T14:48:47;25.30;99.90
15977;DHT22;8091;51.914;12.786;2022-08-20T14:51:13;25.20;99.90
15977;DHT22;8091;51.914;12.786;2022-08-20T14:53:38;25.10;99.90
15977;DHT22;8091;51.914;12.786;2022-08-20T14:56:04;25.30;99.90
15977;DHT22;8091;51.914;12.786;2022-08-20T14:58:29;25.20;99.90
15977;DHT22;8091;51.914;12.786;2022-08-20T15:00:55;25.20;99.90
15977;DHT22;8091;51.914;12.786;2022-08-20T15:03:20;25.10;99.90
15977;DHT22;8091;51.914;12.786;2022-08-20T15:05:48;25.00;99.90
15977;DHT22;8091;51.914;12.786;2022-08-20T15:08:14;25.10;99.90
15977;DHT22;8091;51.914;12.786;2022-08-20T15:10:39;25.10;99.90
15977;DHT22;8091;51.914;12.786;2022-08-20T15:13:05;25.00;99.90
15977;DHT22;8091;51.914;12.786;2022-08-20T15:15:31;25.00;99.90
15977;DHT22;8091;51.914;12.786;2022-08-20T15:17:58;24.90;99.90
15977;DHT22;8091;51.914;12.786;2022-08-20T15:20:26;24.80;99.90
15977;DHT22;8091;51.914;12.786;2022-08-20T15:22:52;24.70;99.90
15977;DHT22;8091;51.914;12.786;2022-08-20T15:25:21;24.60;99.90
15977;DHT22;8091;51.914;12.786;2022-08-20T15:27:47;24.60;99.90
15977;DHT22;8091;51.914;12.786;2022-08-20T15:30:18;24.40;99.90
15977;DHT22;8091;51.914;12.786;2022-08-20T15:32:45;24.30;99.90
15977;DHT22;8091;51.914;12.786;2022-08-20T15:35:11;24.20;99.90
15977;DHT22;8091;51.914;12.786;2022-08-20T15:37:43;24.10;99.90